Time;durP1;ratioP1;P1;durP2;ratioP2;P2;SDS_P1;SDS_P2;PMS_P1;PMS_P2;Temp;Humidity;BMP_temperature;BMP_pressure;BME280_temperature;BME280_humidity;BME280_pressure;Samples;Min_cycle;Max_cycle;Signal;HPM_P1;HPM_P2
2021/09/23 00:01:57;;;;;;;6.20;5.50;;;21.80;51.50;;;;;;5061592;28;20209;-70
2021/09/23 00:04:34;;;;;;;6.27;5.67;;;21.80;51.50;;;;;;5052724;28;20214;-70
2021/09/23 00:07:04;;;;;;;7.10;6.40;;;21.80;51.60;;;;;;5065413;28;20289;-70
2021/09/23 00:09:35;;;;;;;6.40;5.80;;;21.80;51.60;;;;;;5053033;28;20291;-70
2021/09/23 00:12:04;;;;;;;6.73;6.03;;;21.80;52.20;;;;;;5054225;28;20205;-70
2021/09/23 00:14:35;;;;;;;8.93;5.77;;;21.70;51.60;;;;;;5071023;28;20687;-69
2021/09/23 00:17:05;;;;;;;6.23;5.63;;;21.70;51.60;;;;;;5050870;28;20283;-69
2021/09/23 00:19:35;;;;;;;6.20;5.60;;;21.70;51.60;;;;;;5070150;28;20227;-69
2021/09/23 00:22:04;;;;;;;6.33;5.73;;;21.70;51.60;;;;;;5053642;28;20663;-69
2021/09/23 00:24:35;;;;;;;6.53;5.83;;;21.70;51.60;;;;;;5070267;28;20233;-69
2021/09/23 00:27:06;;;;;;;8.83;6.20;;;21.70;51.70;;;;;;5051031;28;20262;-69
2021/09/23 00:29:34;;;;;;;6.27;5.37;;;21.70;51.60;;;;;;5067734;28;20201;-69
2021/09/23 00:32:02;;;;;;;6.07;5.50;;;21.70;51.60;;;;;;5052691;28;20846;-70
2021/09/23 00:34:34;;;;;;;10.37;5.80;;;21.70;51.60;;;;;;5076162;28;20645;-70
2021/09/23 00:37:03;;;;;;;5.93;5.33;;;21.70;51.70;;;;;;5069004;28;20536;-69
2021/09/23 00:39:33;;;;;;;7.40;5.77;;;21.70;51.70;;;;;;5052098;28;20233;-69
2021/09/23 00:42:03;;;;;;;5.70;5.20;;;21.70;51.70;;;;;;5068416;28;20509;-69
2021/09/23 00:44:34;;;;;;;7.60;5.87;;;21.70;51.70;;;;;;5070364;28;20263;-69
2021/09/23 00:47:09;;;;;;;7.40;6.17;;;21.70;51.70;;;;;;5063323;28;20205;-69
2021/09/23 00:49:39;;;;;;;6.70;6.10;;;21.70;51.80;;;;;;5080471;28;20296;-70
2021/09/23 00:52:12;;;;;;;7.63;6.10;;;21.60;51.70;;;;;;5072361;28;20235;-69
2021/09/23 00:54:44;;;;;;;8.43;6.43;;;21.60;51.70;;;;;;5072573;28;20240;-69
2021/09/23 00:57:17;;;;;;;6.90;6.30;;;21.60;51.70;;;;;;5039821;28;20827;-69
2021/09/23 00:59:49;;;;;;;6.77;5.63;;;21.60;51.70;;;;;;5067648;28;20205;-69
2021/09/23 01:02:21;;;;;;;7.23;5.97;;;21.60;51.80;;;;;;5055514;28;20823;-69
2021/09/23 01:04:54;;;;;;;6.80;5.80;;;21.60;51.80;;;;;;5071946;28;20209;-69
2021/09/23 01:07:24;;;;;;;7.13;5.87;;;21.60;51.80;;;;;;5064296;28;20205;-69
2021/09/23 01:09:54;;;;;;;7.93;5.90;;;21.60;51.80;;;;;;5070438;28;20205;-69
2021/09/23 01:12:25;;;;;;;7.07;6.20;;;21.60;51.80;;;;;;5062031;28;20200;-70
2021/09/23 01:14:57;;;;;;;9.60;5.70;;;21.60;51.70;;;;;;5039447;28;20218;-69
2021/09/23 01:17:27;;;;;;;10.10;6.10;;;21.60;51.70;;;;;;5073551;28;20221;-69
2021/09/23 01:20:04;;;;;;;7.00;6.20;;;21.60;51.80;;;;;;5070801;28;20741;-69
2021/09/23 01:22:33;;;;;;;8.47;5.73;;;21.60;51.80;;;;;;5047364;28;20631;-70
2021/09/23 01:25:05;;;;;;;6.00;5.50;;;21.60;51.80;;;;;;5073724;28;20534;-69
2021/09/23 01:27:39;;;;;;;6.20;5.60;;;21.50;51.70;;;;;;5052752;28;20201;-69
2021/09/23 01:30:10;;;;;;;8.43;6.43;;;21.50;51.70;;;;;;5073400;28;20193;-69
2021/09/23 01:32:40;;;;;;;6.83;6.10;;;21.60;51.80;;;;;;5056424;28;20647;-69
2021/09/23 01:35:10;;;;;;;6.40;5.80;;;21.50;52.30;;;;;;5053946;28;20214;-69
2021/09/23 01:37:39;;;;;;;6.40;5.80;;;21.50;51.70;;;;;;5064089;28;20202;-70
2021/09/23 01:40:13;;;;;;;6.17;5.53;;;21.50;51.70;;;;;;5055643;28;20233;-69
2021/09/23 01:42:44;;;;;;;6.93;5.47;;;21.50;51.60;;;;;;5063758;28;20190;-69
2021/09/23 01:45:15;;;;;;;6.70;6.00;;;21.50;51.60;;;;;;5065491;28;20797;-70
2021/09/23 01:47:48;;;;;;;6.83;5.87;;;21.50;51.60;;;;;;5067836;28;20233;-70
2021/09/23 01:50:32;;;;;;;7.43;6.57;;;21.50;51.60;;;;;;5058521;28;20213;-70
2021/09/23 01:53:01;;;;;;;6.57;5.80;;;21.50;51.60;;;;;;5071876;28;20193;-70
2021/09/23 01:55:32;;;;;;;7.43;5.47;;;21.50;51.60;;;;;;5071713;28;20569;-70
2021/09/23 01:58:02;;;;;;;8.73;5.70;;;21.50;51.60;;;;;;5054733;28;20193;-70
2021/09/23 02:00:33;;;;;;;7.47;6.30;;;21.50;51.60;;;;;;5053113;28;20643;-70
2021/09/23 02:03:01;;;;;;;7.03;6.33;;;21.50;51.60;;;;;;5063094;28;20256;-70
2021/09/23 02:05:28;;;;;;;6.53;5.93;;;21.50;51.60;;;;;;5055549;28;20267;-70
2021/09/23 02:07:59;;;;;;;6.87;6.17;;;21.50;51.60;;;;;;5056163;28;20206;-70
2021/09/23 02:10:30;;;;;;;7.60;6.00;;;21.40;51.50;;;;;;5066826;28;20619;-70
2021/09/23 02:12:58;;;;;;;8.17;5.47;;;21.50;51.50;;;;;;5058021;28;20573;-70
2021/09/23 02:15:27;;;;;;;6.53;5.53;;;21.40;51.50;;;;;;5070539;28;20612;-70
2021/09/23 02:17:55;;;;;;;8.83;6.07;;;21.40;51.40;;;;;;5072607;28;20194;-70
2021/09/23 02:20:27;;;;;;;6.57;5.87;;;21.40;51.50;;;;;;5070185;28;20202;-70
2021/09/23 02:22:59;;;;;;;7.50;5.57;;;21.40;51.40;;;;;;5066539;28;20190;-70
2021/09/23 02:25:30;;;;;;;8.60;5.57;;;21.40;51.40;;;;;;5071400;28;20197;-70
2021/09/23 02:28:00;;;;;;;7.27;5.90;;;21.40;51.40;;;;;;5071517;28;20212;-70
2021/09/23 02:30:31;;;;;;;6.73;6.03;;;21.40;51.40;;;;;;5070479;28;20194;-70
2021/09/23 02:33:00;;;;;;;6.57;5.73;;;21.40;51.40;;;;;;5068979;28;20210;-70
2021/09/23 02:35:34;;;;;;;6.57;5.87;;;21.40;51.40;;;;;;5076807;28;20670;-70
2021/09/23 02:38:05;;;;;;;7.10;6.30;;;21.40;51.40;;;;;;5074743;28;20649;-70
2021/09/23 02:40:36;;;;;;;6.23;5.50;;;21.30;51.30;;;;;;5048664;28;20295;-70
2021/09/23 02:43:05;;;;;;;6.60;5.60;;;21.40;51.30;;;;;;5058408;28;20194;-70
2021/09/23 02:45:37;;;;;;;6.80;6.20;;;21.30;51.30;;;;;;5030683;28;20293;-70
2021/09/23 02:48:10;;;;;;;6.80;6.10;;;21.40;51.30;;;;;;5049145;28;20209;-69
2021/09/23 02:50:42;;;;;;;7.63;6.70;;;21.40;51.30;;;;;;5050013;28;20217;-70
2021/09/23 02:53:13;;;;;;;6.67;6.07;;;21.40;51.30;;;;;;5047651;28;20213;-70
2021/09/23 02:55:47;;;;;;;6.87;6.17;;;21.30;51.20;;;;;;5035017;28;20220;-70
2021/09/23 02:58:17;;;;;;;5.83;5.17;;;21.30;51.20;;;;;;5031476;28;20217;-70
2021/09/23 03:00:46;;;;;;;7.30;6.47;;;21.30;51.20;;;;;;5051534;28;20195;-70
2021/09/23 03:03:21;;;;;;;7.43;6.63;;;21.30;51.20;;;;;;5031894;28;20528;-69
2021/09/23 03:05:50;;;;;;;6.50;5.90;;;21.30;51.20;;;;;;5037197;28;20289;-70
2021/09/23 03:08:18;;;;;;;8.00;6.70;;;21.30;51.20;;;;;;5040793;28;20219;-70
2021/09/23 03:10:51;;;;;;;8.83;6.70;;;21.30;51.20;;;;;;5039812;28;20285;-70
2021/09/23 03:13:20;;;;;;;7.33;6.60;;;21.30;51.20;;;;;;5035169;28;20207;-70
2021/09/23 03:15:49;;;;;;;7.30;6.53;;;21.30;51.20;;;;;;5050315;28;20255;-70
2021/09/23 03:18:20;;;;;;;8.83;6.33;;;21.30;51.20;;;;;;5054238;28;20251;-70
2021/09/23 03:20:54;;;;;;;7.47;6.40;;;21.30;51.20;;;;;;5050115;28;20199;-69
2021/09/23 03:23:30;;;;;;;9.47;6.50;;;21.30;51.20;;;;;;5035246;28;20223;-70
2021/09/23 03:26:02;;;;;;;6.97;6.27;;;21.30;51.20;;;;;;5038052;28;20198;-70
2021/09/23 03:28:33;;;;;;;8.43;6.40;;;21.30;51.20;;;;;;5029629;28;20661;-69
2021/09/23 03:31:03;;;;;;;7.53;6.57;;;21.30;51.20;;;;;;5033632;28;20202;-69
2021/09/23 03:33:32;;;;;;;7.00;6.30;;;21.30;51.10;;;;;;5045485;28;20211;-70
2021/09/23 03:36:01;;;;;;;7.17;5.80;;;21.30;51.10;;;;;;5032369;28;20229;-70
2021/09/23 03:38:32;;;;;;;6.97;6.20;;;21.20;51.10;;;;;;5039199;28;20218;-70
2021/09/23 03:41:01;;;;;;;7.33;6.63;;;21.30;51.10;;;;;;5061135;28;20241;-70
2021/09/23 03:43:31;;;;;;;8.10;7.00;;;21.30;51.20;;;;;;5070510;28;20223;-70
2021/09/23 03:46:06;;;;;;;7.77;6.93;;;21.30;51.80;;;;;;5069653;28;20568;-69
2021/09/23 03:48:54;;;;;;;10.67;7.30;;;21.20;51.10;;;;;;5075095;28;20206;-69
2021/09/23 03:51:26;;;;;;;8.20;6.83;;;21.20;51.10;;;;;;5078653;28;20198;-69
2021/09/23 03:53:57;;;;;;;9.97;7.70;;;21.20;51.20;;;;;;5072531;28;20235;-70
2021/09/23 03:56:27;;;;;;;10.30;7.80;;;21.20;51.20;;;;;;5055890;28;20533;-70
2021/09/23 03:58:58;;;;;;;8.47;7.33;;;21.20;51.20;;;;;;5066776;28;20263;-70
2021/09/23 04:01:27;;;;;;;8.37;7.03;;;21.20;51.20;;;;;;5069732;28;20189;-70
2021/09/23 04:03:56;;;;;;;12.10;7.40;;;21.20;51.20;;;;;;5069946;28;20212;-70
2021/09/23 04:06:27;;;;;;;7.73;7.03;;;21.20;51.20;;;;;;5053287;28;20244;-69
2021/09/23 04:08:58;;;;;;;8.40;7.50;;;21.20;51.20;;;;;;5068390;28;20190;-69
2021/09/23 04:11:30;;;;;;;8.80;6.50;;;21.20;51.20;;;;;;5070245;28;20197;-69
2021/09/23 04:14:01;;;;;;;8.50;7.60;;;21.10;51.10;;;;;;5066131;28;20205;-70
2021/09/23 04:16:33;;;;;;;8.13;7.30;;;21.20;51.10;;;;;;5059946;28;20225;-69
2021/09/23 04:19:03;;;;;;;10.33;7.10;;;21.20;51.10;;;;;;5054304;28;20194;-69
2021/09/23 04:21:56;;;;;;;8.63;6.90;;;21.20;51.20;;;;;;5036300;28;20384;-70
2021/09/23 04:24:23;;;;;;;9.30;7.53;;;21.20;51.20;;;;;;5074262;28;20620;-69
2021/09/23 04:26:51;;;;;;;8.37;6.90;;;21.20;51.10;;;;;;5073633;28;20810;-69
2021/09/23 04:29:24;;;;;;;12.90;7.00;;;21.10;51.20;;;;;;5037799;28;20202;-69
2021/09/23 04:31:54;;;;;;;9.50;7.47;;;21.20;51.20;;;;;;5071376;28;20565;-70
2021/09/23 04:34:25;;;;;;;8.43;6.97;;;21.10;51.10;;;;;;5074285;28;20615;-69
2021/09/23 04:36:55;;;;;;;7.87;7.07;;;21.10;51.10;;;;;;5070932;28;20654;-69
2021/09/23 04:39:27;;;;;;;8.30;7.43;;;21.10;51.10;;;;;;5059314;28;20556;-69
2021/09/23 04:42:09;;;;;;;8.93;7.77;;;21.10;51.00;;;;;;5037047;28;20214;-69
2021/09/23 04:44:48;;;;;;;9.57;7.13;;;21.10;51.10;;;;;;5043769;28;20973;-69
2021/09/23 04:47:22;;;;;;;9.20;6.83;;;21.10;51.10;;;;;;5053478;28;20194;-70
2021/09/23 04:49:54;;;;;;;9.87;7.10;;;21.10;51.10;;;;;;5050751;28;20243;-69
2021/09/23 04:52:24;;;;;;;9.47;7.50;;;21.10;51.00;;;;;;5050792;28;20210;-69
2021/09/23 04:54:54;;;;;;;9.47;7.50;;;21.10;51.00;;;;;;5033970;28;20230;-69
2021/09/23 04:57:21;;;;;;;7.73;6.93;;;21.10;51.00;;;;;;5043579;28;20622;-69
2021/09/23 04:59:52;;;;;;;7.73;6.93;;;21.10;51.00;;;;;;5042182;28;20649;-69
2021/09/23 05:02:37;;;;;;;9.10;7.30;;;21.10;51.10;;;;;;5045156;28;20281;-69
2021/09/23 05:05:13;;;;;;;14.13;8.33;;;21.00;51.00;;;;;;5048440;28;20218;-68
2021/09/23 05:07:42;;;;;;;54.13;14.20;;;21.10;51.40;;;;;;5018463;28;20720;-68
2021/09/23 05:10:14;;;;;;;64.47;16.70;;;21.00;51.90;;;;;;5051889;28;20195;-68
2021/09/23 05:12:45;;;;;;;48.13;14.43;;;21.10;52.40;;;;;;5034659;28;20210;-69
2021/09/23 05:15:51;;;;;;;50.33;14.93;;;21.10;52.30;;;;;;5046675;28;20219;-69
2021/09/23 05:18:45;;;;;;;55.80;18.47;;;21.00;52.30;;;;;;5049641;28;20220;-68
2021/09/23 05:21:23;;;;;;;48.57;17.53;;;21.10;53.40;;;;;;5025136;28;20203;-68
2021/09/23 05:23:54;;;;;;;46.50;18.13;;;21.10;54.40;;;;;;5050400;28;20194;-69
2021/09/23 05:26:22;;;;;;;41.33;16.57;;;21.10;54.40;;;;;;5060237;28;20206;-69
2021/09/23 05:29:03;;;;;;;39.30;15.17;;;21.10;54.20;;;;;;5045935;28;20268;-69
2021/09/23 05:31:35;;;;;;;31.43;12.97;;;21.10;54.00;;;;;;5047939;28;20554;-68
2021/09/23 05:34:08;;;;;;;30.23;13.13;;;21.00;53.70;;;;;;5048549;28;20198;-68
2021/09/23 05:36:38;;;;;;;25.27;12.30;;;21.00;53.40;;;;;;5034666;28;20232;-70
2021/09/23 05:39:11;;;;;;;19.13;10.50;;;21.00;53.30;;;;;;5032389;28;20202;-70
2021/09/23 05:41:41;;;;;;;20.50;9.80;;;21.00;53.00;;;;;;5048366;28;20242;-70
2021/09/23 05:44:12;;;;;;;17.67;10.87;;;21.00;52.70;;;;;;5029424;28;20207;-70
2021/09/23 05:46:46;;;;;;;18.97;9.60;;;21.00;52.30;;;;;;5046483;28;20635;-69
2021/09/23 05:49:19;;;;;;;13.63;9.00;;;21.00;52.20;;;;;;5033936;28;20202;-70
2021/09/23 05:51:56;;;;;;;12.70;9.00;;;21.00;52.10;;;;;;5033626;28;20194;-70
2021/09/23 05:54:46;;;;;;;14.10;9.30;;;21.00;51.90;;;;;;5028916;28;20233;-70
2021/09/23 05:57:33;;;;;;;13.47;9.47;;;21.00;51.90;;;;;;5048408;28;20194;-70
2021/09/23 06:00:17;;;;;;;11.83;8.87;;;21.00;51.80;;;;;;5046095;28;20481;-70
2021/09/23 06:02:47;;;;;;;12.43;8.83;;;21.00;51.70;;;;;;5050689;28;20248;-70
2021/09/23 06:05:29;;;;;;;10.40;8.40;;;21.00;51.70;;;;;;5047942;28;20645;-70
2021/09/23 06:07:57;;;;;;;9.97;8.83;;;21.00;51.70;;;;;;5054210;28;20221;-70
2021/09/23 06:10:38;;;;;;;10.60;8.37;;;20.90;51.60;;;;;;5053683;28;20202;-70
2021/09/23 06:13:07;;;;;;;9.47;8.53;;;21.00;51.60;;;;;;5051336;28;20207;-69
2021/09/23 06:15:39;;;;;;;10.60;8.30;;;21.00;51.80;;;;;;5034012;28;20225;-70
2021/09/23 06:18:09;;;;;;;10.83;8.73;;;21.00;52.10;;;;;;5032941;28;20225;-70
2021/09/23 06:20:47;;;;;;;10.33;8.47;;;21.00;52.10;;;;;;5046408;28;20565;-70
2021/09/23 06:23:23;;;;;;;11.47;8.70;;;20.90;51.90;;;;;;5046784;28;20236;-70
2021/09/23 06:25:51;;;;;;;10.60;8.00;;;20.90;51.80;;;;;;5045378;28;20201;-69
2021/09/23 06:28:22;;;;;;;9.30;8.00;;;20.90;51.80;;;;;;5045316;28;20252;-70
2021/09/23 06:30:52;;;;;;;10.33;8.73;;;20.90;51.80;;;;;;5045243;28;20206;-69
2021/09/23 06:33:23;;;;;;;9.00;8.10;;;20.90;52.40;;;;;;5049208;28;20220;-69
2021/09/23 06:35:52;;;;;;;8.90;8.00;;;20.90;51.80;;;;;;5050617;28;20214;-69
2021/09/23 06:38:23;;;;;;;10.93;8.63;;;20.90;51.80;;;;;;5051807;28;20218;-70
2021/09/23 06:41:01;;;;;;;10.00;8.20;;;20.90;51.80;;;;;;5063486;28;20243;-70
2021/09/23 06:43:33;;;;;;;12.10;8.97;;;20.80;51.70;;;;;;5070360;28;20198;-69
2021/09/23 06:46:03;;;;;;;12.40;9.37;;;20.80;51.80;;;;;;5058629;28;20213;-69
2021/09/23 06:48:35;;;;;;;10.50;9.40;;;20.90;51.80;;;;;;5070279;28;20210;-69
2021/09/23 06:51:07;;;;;;;9.07;8.17;;;20.90;51.80;;;;;;5059074;28;20201;-69
2021/09/23 06:53:36;;;;;;;10.17;8.90;;;20.90;51.80;;;;;;5070156;28;20246;-69
2021/09/23 06:56:05;;;;;;;11.90;8.70;;;20.90;51.90;;;;;;5071517;28;20301;-69
2021/09/23 06:58:34;;;;;;;9.80;8.23;;;20.80;51.80;;;;;;5055615;28;20193;-69
2021/09/23 07:01:05;;;;;;;10.03;8.40;;;20.80;51.90;;;;;;5069945;28;20537;-69
2021/09/23 07:03:36;;;;;;;10.93;9.30;;;20.80;51.80;;;;;;5071309;28;20194;-69
2021/09/23 07:06:05;;;;;;;10.10;8.23;;;20.80;51.90;;;;;;5070681;28;20202;-69
2021/09/23 07:08:35;;;;;;;9.47;7.93;;;20.80;51.90;;;;;;5064517;28;20194;-69
2021/09/23 07:11:05;;;;;;;11.60;8.70;;;20.80;51.90;;;;;;5070607;28;20211;-69
2021/09/23 07:13:35;;;;;;;10.47;8.17;;;20.80;51.90;;;;;;5063190;28;20232;-69
2021/09/23 07:16:04;;;;;;;9.73;8.37;;;20.80;51.90;;;;;;5050078;28;20220;-69
2021/09/23 07:18:34;;;;;;;10.27;8.40;;;20.80;52.00;;;;;;5057676;28;20218;-69
2021/09/23 07:21:03;;;;;;;10.73;8.53;;;20.80;52.00;;;;;;5064228;28;20206;-69
2021/09/23 07:23:32;;;;;;;9.67;8.20;;;20.80;52.10;;;;;;5065449;28;20643;-69
2021/09/23 07:26:03;;;;;;;11.37;8.80;;;20.80;52.10;;;;;;5050484;28;20633;-69
2021/09/23 07:28:31;;;;;;;10.63;9.53;;;20.80;52.20;;;;;;5038929;28;20209;-69
2021/09/23 07:31:06;;;;;;;10.17;8.53;;;20.80;52.30;;;;;;5061690;28;20236;-69
2021/09/23 07:33:38;;;;;;;9.87;8.87;;;20.80;52.50;;;;;;5056670;28;20193;-69
2021/09/23 07:36:09;;;;;;;11.73;8.63;;;20.80;52.50;;;;;;5068375;28;20228;-69
2021/09/23 07:38:39;;;;;;;10.60;8.47;;;20.80;52.50;;;;;;5065011;28;20201;-69
2021/09/23 07:41:09;;;;;;;10.90;9.17;;;20.80;52.60;;;;;;5052601;28;20683;-69
2021/09/23 07:43:40;;;;;;;9.70;8.53;;;20.80;52.70;;;;;;5058514;28;20205;-69
2021/09/23 07:46:12;;;;;;;9.53;8.53;;;20.80;52.70;;;;;;5050685;28;20635;-69
2021/09/23 07:48:42;;;;;;;10.80;9.43;;;20.80;52.80;;;;;;5067994;28;20201;-69
2021/09/23 07:51:14;;;;;;;9.30;8.30;;;20.80;53.00;;;;;;5054219;28;20201;-69
2021/09/23 07:53:54;;;;;;;11.23;9.03;;;20.80;53.00;;;;;;5070337;28;20202;-70
2021/09/23 07:56:25;;;;;;;14.07;8.67;;;20.70;53.40;;;;;;5066716;28;20571;-69
2021/09/23 07:58:55;;;;;;;12.20;10.27;;;20.80;53.50;;;;;;5069054;28;20221;-69
2021/09/23 08:01:29;;;;;;;10.77;9.67;;;20.70;53.70;;;;;;5073933;28;20275;-69
2021/09/23 08:04:04;;;;;;;11.93;10.30;;;20.80;53.80;;;;;;5052582;28;20240;-69
2021/09/23 08:06:37;;;;;;;12.40;11.03;;;20.80;53.80;;;;;;5073650;28;20192;-68
2021/09/23 08:09:06;;;;;;;12.23;10.27;;;20.70;54.20;;;;;;5073227;28;20722;-69
2021/09/23 08:11:38;;;;;;;14.10;10.47;;;20.70;54.10;;;;;;5057759;28;20646;-71
2021/09/23 08:14:10;;;;;;;13.47;10.50;;;20.70;54.20;;;;;;5070836;28;20217;-71
2021/09/23 08:16:48;;;;;;;11.53;10.23;;;20.70;54.30;;;;;;5059463;28;20290;-71
2021/09/23 08:19:31;;;;;;;13.87;9.93;;;20.70;54.20;;;;;;5069164;28;20583;-71
2021/09/23 08:21:59;;;;;;;11.57;10.33;;;20.70;54.20;;;;;;5053933;28;20198;-71
2021/09/23 08:24:28;;;;;;;11.03;9.93;;;20.80;54.40;;;;;;5072394;28;20748;-68
2021/09/23 08:26:58;;;;;;;10.77;9.77;;;20.80;54.70;;;;;;5081880;28;20350;-70
2021/09/23 08:29:31;;;;;;;12.90;10.77;;;20.70;54.60;;;;;;5057186;28;20267;-71
2021/09/23 08:32:00;;;;;;;10.70;9.23;;;20.80;54.90;;;;;;5057332;28;20216;-69
2021/09/23 08:34:28;;;;;;;12.00;9.60;;;20.80;54.70;;;;;;5051929;28;20210;-69
2021/09/23 08:37:12;;;;;;;11.03;9.17;;;20.80;54.60;;;;;;5080235;28;20556;-67
2021/09/23 08:39:46;;;;;;;12.30;11.00;;;20.80;55.00;;;;;;5076554;28;20195;-67
2021/09/23 08:42:16;;;;;;;13.30;11.33;;;20.80;55.60;;;;;;5054896;28;20201;-66
2021/09/23 08:44:50;;;;;;;12.93;11.50;;;20.80;55.80;;;;;;5055595;28;20633;-66
2021/09/23 08:47:26;;;;;;;13.60;11.73;;;20.80;55.90;;;;;;5053023;28;20213;-66
2021/09/23 08:49:58;;;;;;;16.07;13.27;;;20.80;56.40;;;;;;5064981;28;20638;-66
2021/09/23 08:52:29;;;;;;;15.20;13.53;;;20.80;56.80;;;;;;5072999;28;20220;-66
2021/09/23 08:55:03;;;;;;;15.83;13.03;;;20.80;57.80;;;;;;5039536;28;20201;-66
2021/09/23 08:57:36;;;;;;;14.73;12.20;;;20.70;57.30;;;;;;5067185;28;20245;-68
2021/09/23 09:00:11;;;;;;;17.67;13.13;;;20.70;57.10;;;;;;5048488;28;20264;-68
2021/09/23 09:02:41;;;;;;;12.77;11.43;;;20.70;57.30;;;;;;5062117;28;20206;-67
2021/09/23 09:05:18;;;;;;;17.70;13.93;;;20.70;57.10;;;;;;5072426;28;20202;-68
2021/09/23 09:08:14;;;;;;;13.67;11.37;;;20.70;57.60;;;;;;5050098;28;20232;-68
2021/09/23 09:10:44;;;;;;;14.07;12.30;;;20.70;57.50;;;;;;5070684;28;20208;-69
2021/09/23 09:13:17;;;;;;;14.87;12.53;;;20.70;57.60;;;;;;5068404;28;20203;-69
2021/09/23 09:15:47;;;;;;;16.00;12.50;;;20.70;57.90;;;;;;5060747;28;20261;-69
2021/09/23 09:18:22;;;;;;;13.43;11.50;;;20.70;58.10;;;;;;5071515;28;20259;-69
2021/09/23 09:21:03;;;;;;;14.13;12.63;;;20.70;58.10;;;;;;5052769;28;20205;-69
2021/09/23 09:23:59;;;;;;;15.17;12.03;;;20.70;58.40;;;;;;5065132;28;20189;-69
2021/09/23 09:26:41;;;;;;;12.53;10.87;;;20.70;58.30;;;;;;5058284;28;20264;-69
2021/09/23 09:29:19;;;;;;;14.50;11.57;;;20.70;58.50;;;;;;5072869;28;20297;-68
2021/09/23 09:31:56;;;;;;;13.67;11.53;;;20.70;58.70;;;;;;5068193;28;20258;-69
2021/09/23 09:34:29;;;;;;;12.43;10.43;;;20.70;58.80;;;;;;5058701;28;20247;-69
2021/09/23 09:37:00;;;;;;;12.70;9.83;;;20.70;58.60;;;;;;5070745;28;20924;-67
2021/09/23 09:39:45;;;;;;;14.30;10.37;;;20.80;58.50;;;;;;5059695;28;20217;-67
2021/09/23 09:42:17;;;;;;;13.63;11.37;;;20.80;58.60;;;;;;5071259;28;20198;-69
2021/09/23 09:44:59;;;;;;;13.63;10.50;;;20.80;59.10;;;;;;5072142;28;20193;-69
2021/09/23 09:47:33;;;;;;;12.90;11.00;;;20.80;59.00;;;;;;5061530;28;20228;-68
2021/09/23 09:50:15;;;;;;;12.17;10.20;;;20.80;59.00;;;;;;5071937;28;20236;-69
2021/09/23 09:53:04;;;;;;;11.33;10.17;;;20.80;59.10;;;;;;5054108;28;20189;-69
2021/09/23 09:55:35;;;;;;;14.37;10.37;;;20.80;59.10;;;;;;5069866;28;20205;-70
2021/09/23 09:58:24;;;;;;;12.40;9.70;;;20.80;59.00;;;;;;5063024;28;20280;-69
2021/09/23 10:01:06;;;;;;;11.30;9.43;;;20.80;59.00;;;;;;5069740;28;20639;-69
2021/09/23 10:03:40;;;;;;;12.77;10.63;;;20.80;59.00;;;;;;5065062;28;20220;-70
2021/09/23 10:06:11;;;;;;;11.60;10.23;;;20.80;59.00;;;;;;5069072;28;20194;-67
2021/09/23 10:08:42;;;;;;;13.50;9.97;;;20.80;58.90;;;;;;5046887;28;20517;-66
2021/09/23 10:11:11;;;;;;;13.17;10.60;;;20.80;59.00;;;;;;5044460;28;20246;-67
2021/09/23 10:13:41;;;;;;;11.73;9.90;;;20.80;59.00;;;;;;5068947;28;20205;-66
2021/09/23 10:16:12;;;;;;;13.23;9.33;;;20.80;58.80;;;;;;5065523;28;20710;-65
2021/09/23 10:18:41;;;;;;;13.20;9.77;;;20.80;58.90;;;;;;5067591;28;20213;-65
2021/09/23 10:21:27;;;;;;;15.13;9.67;;;20.80;58.70;;;;;;5056760;28;20274;-65
2021/09/23 10:24:14;;;;;;;12.87;9.57;;;20.80;58.50;;;;;;5068147;28;20296;-66
2021/09/23 10:26:49;;;;;;;14.50;10.10;;;20.90;58.40;;;;;;5050289;28;20209;-66
2021/09/23 10:29:20;;;;;;;13.10;10.20;;;20.90;58.40;;;;;;5055041;28;20242;-66
2021/09/23 10:31:59;;;;;;;12.20;9.30;;;20.90;58.30;;;;;;5039330;28;20781;-66
2021/09/23 10:34:29;;;;;;;11.80;9.13;;;20.80;58.20;;;;;;5068994;28;20559;-66
2021/09/23 10:36:58;;;;;;;15.53;10.60;;;20.90;58.50;;;;;;5061669;28;20279;-68
2021/09/23 10:39:34;;;;;;;13.13;10.03;;;20.90;58.60;;;;;;5057150;28;20640;-67
2021/09/23 10:42:11;;;;;;;13.47;10.00;;;20.90;58.70;;;;;;5073034;28;20229;-66
2021/09/23 10:44:53;;;;;;;10.50;9.40;;;20.90;58.50;;;;;;5074719;28;20193;-66
2021/09/23 10:47:28;;;;;;;10.70;9.50;;;20.90;58.20;;;;;;5044673;28;20247;-67
2021/09/23 10:50:06;;;;;;;12.73;10.57;;;20.90;58.10;;;;;;5085328;28;20577;-68
2021/09/23 10:52:50;;;;;;;10.93;9.80;;;20.90;58.10;;;;;;5084867;28;20197;-66
2021/09/23 10:55:38;;;;;;;14.03;10.47;;;20.90;58.10;;;;;;5074827;28;20252;-67
2021/09/23 10:58:13;;;;;;;12.50;10.67;;;20.80;58.10;;;;;;5072771;28;20236;-68
2021/09/23 11:00:46;;;;;;;14.23;10.43;;;20.90;58.20;;;;;;5046824;28;20205;-68
2021/09/23 11:03:16;;;;;;;12.17;10.87;;;20.90;58.30;;;;;;5073970;28;20212;-68
2021/09/23 11:05:48;;;;;;;13.97;10.13;;;20.90;58.40;;;;;;5041717;28;20209;-69
2021/09/23 11:08:23;;;;;;;11.33;9.67;;;20.90;58.30;;;;;;5070734;28;20193;-69
2021/09/23 11:10:57;;;;;;;14.90;10.37;;;21.00;58.30;;;;;;5037204;28;20207;-68
2021/09/23 11:13:32;;;;;;;13.43;11.80;;;21.00;58.20;;;;;;5059320;28;20193;-68
2021/09/23 11:16:03;;;;;;;15.60;11.40;;;21.00;58.10;;;;;;5060681;28;20239;-67
2021/09/23 11:18:35;;;;;;;13.93;10.27;;;21.00;58.10;;;;;;5059281;28;20190;-66
2021/09/23 11:21:16;;;;;;;12.10;10.53;;;21.00;58.10;;;;;;5075329;28;20182;-67
2021/09/23 11:23:47;;;;;;;12.87;10.57;;;21.00;57.90;;;;;;5071231;28;20201;-69
2021/09/23 11:26:18;;;;;;;15.37;11.53;;;21.00;57.90;;;;;;5052423;28;20198;-68
2021/09/23 11:29:03;;;;;;;11.97;10.77;;;21.00;57.70;;;;;;5063037;28;20216;-68
2021/09/23 11:32:02;;;;;;;13.10;10.97;;;21.00;57.80;;;;;;5047713;28;20227;-67
2021/09/23 11:34:39;;;;;;;12.07;10.87;;;21.10;57.70;;;;;;5066502;28;20237;-68
2021/09/23 11:37:14;;;;;;;13.03;11.70;;;21.00;57.50;;;;;;5080156;28;20267;-68
2021/09/23 11:39:49;;;;;;;13.73;12.33;;;21.10;58.00;;;;;;5068638;28;20201;-68
2021/09/23 11:42:19;;;;;;;13.00;11.07;;;21.10;57.40;;;;;;5061125;28;20208;-66
2021/09/23 11:44:50;;;;;;;13.37;12.07;;;21.10;57.50;;;;;;5069019;28;20259;-66
2021/09/23 11:47:25;;;;;;;14.47;11.57;;;21.10;57.60;;;;;;5048741;28;20206;-66
2021/09/23 11:49:55;;;;;;;13.77;12.33;;;21.10;57.70;;;;;;5049043;28;20194;-67
2021/09/23 11:52:34;;;;;;;12.70;11.40;;;21.10;57.70;;;;;;5051802;28;20299;-66
2021/09/23 11:55:05;;;;;;;17.60;12.00;;;21.10;58.10;;;;;;5052731;28;20210;-66
2021/09/23 11:57:37;;;;;;;13.70;11.50;;;21.10;58.20;;;;;;5053199;28;20411;-69
2021/09/23 12:00:06;;;;;;;15.27;11.50;;;21.10;58.10;;;;;;5061107;28;20190;-69
2021/09/23 12:02:54;;;;;;;13.80;11.10;;;21.10;58.10;;;;;;5050230;28;20605;-67
2021/09/23 12:05:31;;;;;;;12.27;11.07;;;21.20;58.00;;;;;;5050295;28;20240;-68
2021/09/23 12:08:30;;;;;;;13.33;10.70;;;21.10;57.90;;;;;;5066331;28;20209;-69
2021/09/23 12:11:18;;;;;;;13.70;11.70;;;21.20;58.00;;;;;;5050941;28;20728;-68
2021/09/23 12:13:54;;;;;;;14.93;11.53;;;21.20;58.00;;;;;;5070443;28;20205;-68
2021/09/23 12:16:29;;;;;;;16.60;11.93;;;21.10;58.10;;;;;;5068878;28;20216;-68
2021/09/23 12:19:14;;;;;;;13.33;11.27;;;21.10;58.10;;;;;;5054673;28;20190;-68
2021/09/23 12:21:58;;;;;;;15.77;12.10;;;21.10;57.90;;;;;;5059061;28;20197;-68
2021/09/23 12:24:40;;;;;;;13.33;11.47;;;21.00;57.70;;;;;;5053305;28;20202;-68
2021/09/23 12:27:11;;;;;;;13.70;10.80;;;21.10;57.60;;;;;;5052589;28;20202;-69
2021/09/23 12:29:41;;;;;;;14.53;11.53;;;21.10;57.60;;;;;;5052508;28;20785;-69
2021/09/23 12:32:11;;;;;;;13.20;11.20;;;21.10;57.70;;;;;;5068804;28;20619;-69
2021/09/23 12:35:14;;;;;;;12.50;10.43;;;21.10;57.70;;;;;;5053178;28;20236;-69
2021/09/23 12:37:44;;;;;;;12.50;11.07;;;21.20;57.70;;;;;;5069311;28;20728;-66
2021/09/23 12:40:13;;;;;;;12.73;10.70;;;21.20;57.60;;;;;;5041050;28;20245;-68
2021/09/23 12:42:42;;;;;;;12.17;10.97;;;21.20;57.60;;;;;;5065503;28;20190;-69
2021/09/23 12:45:27;;;;;;;11.40;10.13;;;21.20;57.40;;;;;;5058065;28;20216;-68
2021/09/23 12:48:01;;;;;;;12.40;10.53;;;21.20;57.30;;;;;;5074231;28;20674;-68
2021/09/23 12:50:30;;;;;;;11.83;10.40;;;21.20;57.30;;;;;;5070487;28;20201;-68
2021/09/23 12:53:03;;;;;;;11.67;10.30;;;21.20;57.40;;;;;;5058701;28;20255;-68
2021/09/23 12:55:55;;;;;;;11.93;10.13;;;21.20;57.40;;;;;;5075246;28;20190;-67
2021/09/23 12:58:28;;;;;;;11.30;9.57;;;21.30;57.30;;;;;;5061014;28;21068;-67
2021/09/23 13:01:00;;;;;;;12.57;9.40;;;21.20;57.30;;;;;;5072890;28;20539;-70
2021/09/23 13:03:35;;;;;;;11.07;8.87;;;21.30;57.20;;;;;;5072373;28;20202;-70
2021/09/23 13:06:11;;;;;;;11.43;8.60;;;21.30;57.10;;;;;;5074544;28;20198;-69
2021/09/23 13:08:48;;;;;;;10.23;7.70;;;21.30;57.00;;;;;;5070099;28;20189;-69
2021/09/23 13:11:21;;;;;;;9.00;8.00;;;21.30;57.10;;;;;;5058316;28;20217;-69